Time;durP1;ratioP1;P1;durP2;ratioP2;P2;SDS_P1;SDS_P2;PMS_P1;PMS_P2;Temp;Humidity;BMP_temperature;BMP_pressure;BME280_temperature;BME280_humidity;BME280_pressure;Samples;Min_cycle;Max_cycle;Signal;HPM_P1;HPM_P2
2022/08/21 00:00:54;;;;;;;3.90;2.07;;;;;;;;;;5020207;28;20448;-52
2022/08/21 00:03:20;;;;;;;2.40;1.63;;;;;;;;;;5021585;28;20594;-53
2022/08/21 00:05:50;;;;;;;3.07;2.13;;;;;;;;;;4980224;28;20471;-53
2022/08/21 00:08:16;;;;;;;2.63;1.97;;;;;;;;;;5022255;28;20427;-53
2022/08/21 00:10:42;;;;;;;5.53;2.10;;;;;;;;;;5003664;28;20470;-53
2022/08/21 00:13:08;;;;;;;3.67;2.37;;;;;;;;;;5009776;28;20971;-53
2022/08/21 00:15:34;;;;;;;5.20;2.30;;;;;;;;;;5014983;28;20424;-53
2022/08/21 00:18:00;;;;;;;3.20;2.03;;;;;;;;;;5022875;28;20440;-53
2022/08/21 00:20:26;;;;;;;2.60;1.73;;;;;;;;;;5015493;28;20433;-53
2022/08/21 00:22:52;;;;;;;1.60;1.50;;;;;;;;;;5026589;28;20439;-53
2022/08/21 00:25:18;;;;;;;3.00;1.60;;;;;;;;;;5022504;28;20490;-53
2022/08/21 00:27:46;;;;;;;4.47;2.13;;;;;;;;;;5021219;28;20435;-52
2022/08/21 00:30:12;;;;;;;2.47;1.60;;;;;;;;;;4996958;28;20500;-54
2022/08/21 00:32:38;;;;;;;4.97;2.00;;;;;;;;;;5020798;28;20436;-53
2022/08/21 00:35:08;;;;;;;3.00;1.90;;;;;;;;;;4980344;28;20436;-54
2022/08/21 00:37:34;;;;;;;3.80;1.93;;;;;;;;;;5018680;28;20444;-53
2022/08/21 00:40:00;;;;;;;3.47;2.30;;;;;;;;;;5014286;28;20437;-53
2022/08/21 00:42:26;;;;;;;2.50;2.30;;;;;;;;;;5028400;28;20267;-54
2022/08/21 00:44:52;;;;;;;3.13;2.50;;;;;;;;;;5019774;28;20346;-53
2022/08/21 00:47:19;;;;;;;2.93;1.97;;;;;;;;;;5031095;28;20969;-53
2022/08/21 00:49:44;;;;;;;2.20;1.80;;;;;;;;;;4990398;28;20451;-52
2022/08/21 00:52:11;;;;;;;3.93;2.20;;;;;;;;;;5031192;28;20426;-53
2022/08/21 00:54:37;;;;;;;2.93;1.73;;;;;;;;;;5009387;28;20431;-54
2022/08/21 00:57:05;;;;;;;3.63;2.60;;;;;;;;;;5012489;28;20435;-53
2022/08/21 00:59:33;;;;;;;6.50;2.33;;;;;;;;;;4987928;28;20466;-53
2022/08/21 01:01:59;;;;;;;3.70;1.73;;;;;;;;;;5010342;28;20443;-53
2022/08/21 01:04:25;;;;;;;3.20;2.27;;;;;;;;;;4982897;28;20536;-53
2022/08/21 01:06:51;;;;;;;2.47;2.00;;;;;;;;;;5012313;28;20483;-53
2022/08/21 01:09:18;;;;;;;5.67;1.87;;;;;;;;;;5024876;28;20179;-53
2022/08/21 01:11:44;;;;;;;3.60;2.27;;;;;;;;;;5024922;28;20427;-53
2022/08/21 01:14:12;;;;;;;2.87;2.03;;;;;;;;;;5009227;28;20530;-53
2022/08/21 01:16:38;;;;;;;3.00;1.60;;;;;;;;;;5025218;28;20437;-53
2022/08/21 01:19:04;;;;;;;3.80;2.07;;;;;;;;;;4993878;28;20447;-53
2022/08/21 01:21:30;;;;;;;4.73;2.40;;;;;;;;;;5003388;28;20454;-53
2022/08/21 01:23:56;;;;;;;2.50;2.07;;;;;;;;;;5018303;28;20822;-54
2022/08/21 01:26:23;;;;;;;2.77;1.97;;;;;;;;;;5025539;28;20254;-54
2022/08/21 01:28:55;;;;;;;2.17;1.97;;;;;;;;;;5025012;28;20463;-53
2022/08/21 01:31:21;;;;;;;2.90;1.97;;;;;;;;;;5006934;28;20451;-52
2022/08/21 01:33:47;;;;;;;4.97;2.17;;;;;;;;;;5005207;28;21056;-54
2022/08/21 01:36:13;;;;;;;2.97;2.00;;;;;;;;;;5006413;28;20431;-53
2022/08/21 01:38:39;;;;;;;5.23;2.00;;;;;;;;;;5019953;28;20795;-54
2022/08/21 01:41:05;;;;;;;4.23;1.77;;;;;;;;;;5011796;28;20813;-53
2022/08/21 01:43:31;;;;;;;2.33;1.90;;;;;;;;;;5025255;28;20449;-55
2022/08/21 01:45:57;;;;;;;2.90;2.03;;;;;;;;;;5003419;28;20224;-54
2022/08/21 01:48:23;;;;;;;3.93;2.37;;;;;;;;;;5026666;28;20283;-53
2022/08/21 01:50:49;;;;;;;1.73;1.50;;;;;;;;;;5021018;28;20282;-53
2022/08/21 01:53:15;;;;;;;3.50;2.53;;;;;;;;;;5020666;28;20435;-54
2022/08/21 01:55:41;;;;;;;3.20;2.30;;;;;;;;;;5019664;28;20446;-54
2022/08/21 01:58:07;;;;;;;3.73;2.00;;;;;;;;;;5026059;28;20435;-54
2022/08/21 02:00:33;;;;;;;4.23;2.00;;;;;;;;;;5003620;28;20458;-54
2022/08/21 02:02:59;;;;;;;2.60;2.07;;;;;;;;;;5028875;28;20177;-54
2022/08/21 02:05:25;;;;;;;7.10;2.70;;;;;;;;;;5016077;28;20219;-53
2022/08/21 02:07:51;;;;;;;3.70;2.40;;;;;;;;;;5030040;28;20427;-54
2022/08/21 02:10:20;;;;;;;5.40;2.23;;;;;;;;;;4982125;28;20475;-54
2022/08/21 02:12:46;;;;;;;3.30;2.17;;;;;;;;;;5024634;28;20431;-54
2022/08/21 02:15:12;;;;;;;2.97;2.07;;;;;;;;;;5024710;28;20466;-52
2022/08/21 02:17:42;;;;;;;5.10;2.13;;;;;;;;;;5027472;28;20432;-51
2022/08/21 02:20:08;;;;;;;3.77;2.10;;;;;;;;;;5022457;28;20435;-52
2022/08/21 02:22:34;;;;;;;3.07;2.10;;;;;;;;;;5025308;28;20450;-53
2022/08/21 02:25:00;;;;;;;2.77;2.10;;;;;;;;;;5013218;28;20528;-53
2022/08/21 02:27:26;;;;;;;3.17;2.17;;;;;;;;;;5026746;28;20431;-53
2022/08/21 02:29:52;;;;;;;5.57;2.17;;;;;;;;;;5002038;28;20458;-52
2022/08/21 02:32:18;;;;;;;3.60;2.23;;;;;;;;;;5028082;28;20534;-52
2022/08/21 02:34:44;;;;;;;1.93;1.73;;;;;;;;;;5024822;28;20243;-53
2022/08/21 02:37:09;;;;;;;3.93;1.87;;;;;;;;;;5027875;28;20904;-53
2022/08/21 02:39:35;;;;;;;5.57;2.50;;;;;;;;;;4981245;28;20880;-53
2022/08/21 02:42:01;;;;;;;3.77;2.37;;;;;;;;;;5019114;28;20669;-52
2022/08/21 02:44:27;;;;;;;3.80;2.50;;;;;;;;;;5021343;28;20219;-53
2022/08/21 02:46:53;;;;;;;3.40;2.17;;;;;;;;;;5025018;28;20217;-53
2022/08/21 02:49:19;;;;;;;2.80;2.50;;;;;;;;;;5023482;28;20166;-53
2022/08/21 02:51:45;;;;;;;3.43;2.10;;;;;;;;;;5028038;28;20187;-53
2022/08/21 02:54:11;;;;;;;3.30;1.93;;;;;;;;;;5021926;28;20268;-53
2022/08/21 02:56:37;;;;;;;4.87;2.07;;;;;;;;;;5027666;28;20528;-53
2022/08/21 02:59:03;;;;;;;5.70;2.43;;;;;;;;;;5008439;28;20688;-54
2022/08/21 03:01:29;;;;;;;3.87;2.30;;;;;;;;;;5021754;28;20458;-53
2022/08/21 03:03:55;;;;;;;3.60;2.30;;;;;;;;;;5019818;28;20436;-52
2022/08/21 03:06:22;;;;;;;2.77;2.10;;;;;;;;;;5026577;28;20532;-52
2022/08/21 03:08:47;;;;;;;3.30;2.17;;;;;;;;;;5014528;28;20851;-52
2022/08/21 03:11:14;;;;;;;3.13;2.40;;;;;;;;;;5016073;28;20436;-52
2022/08/21 03:13:40;;;;;;;4.60;3.03;;;;;;;;;;5004695;28;20559;-53
2022/08/21 03:16:06;;;;;;;4.60;2.83;;;;;;;;;;4980953;28;20434;-53
2022/08/21 03:18:32;;;;;;;2.90;2.47;;;;;;;;;;5027281;28;20454;-54
2022/08/21 03:20:58;;;;;;;4.77;2.73;;;;;;;;;;5023396;28;20427;-52
2022/08/21 03:23:24;;;;;;;2.27;2.07;;;;;;;;;;5025247;28;20982;-53
2022/08/21 03:25:50;;;;;;;5.27;3.50;;;;;;;;;;5005032;28;20232;-53
2022/08/21 03:28:17;;;;;;;3.83;2.53;;;;;;;;;;5025746;28;20431;-53
2022/08/21 03:30:44;;;;;;;8.80;2.23;;;;;;;;;;4999527;28;20454;-53
2022/08/21 03:33:10;;;;;;;5.00;2.90;;;;;;;;;;5027331;28;20467;-54
2022/08/21 03:35:35;;;;;;;2.80;2.60;;;;;;;;;;5012941;28;20467;-52
2022/08/21 03:38:01;;;;;;;4.10;2.43;;;;;;;;;;5026466;28;20442;-54
2022/08/21 03:40:27;;;;;;;3.70;2.37;;;;;;;;;;5004405;28;20192;-53
2022/08/21 03:42:53;;;;;;;2.70;2.33;;;;;;;;;;5024133;28;20446;-53
2022/08/21 03:45:19;;;;;;;3.07;2.53;;;;;;;;;;4979403;28;20847;-53
2022/08/21 03:47:55;;;;;;;5.13;2.60;;;;;;;;;;5018970;28;20452;-53
2022/08/21 03:50:22;;;;;;;7.00;2.80;;;;;;;;;;5022814;28;20457;-53
2022/08/21 03:52:48;;;;;;;3.40;2.53;;;;;;;;;;5025737;28;20442;-54
2022/08/21 03:55:14;;;;;;;3.63;2.53;;;;;;;;;;5014805;28;20439;-54
2022/08/21 03:57:40;;;;;;;4.23;2.90;;;;;;;;;;5025620;28;20436;-53
2022/08/21 04:00:08;;;;;;;4.10;2.73;;;;;;;;;;4999899;28;20534;-52
2022/08/21 04:02:35;;;;;;;5.77;2.70;;;;;;;;;;5026162;28;20169;-53
2022/08/21 04:05:01;;;;;;;2.50;1.93;;;;;;;;;;5022379;28;20540;-52
2022/08/21 04:07:27;;;;;;;7.20;3.20;;;;;;;;;;5008320;28;21490;-53
2022/08/21 04:09:53;;;;;;;3.83;2.00;;;;;;;;;;5003607;28;20708;-53
2022/08/21 04:12:19;;;;;;;3.17;2.50;;;;;;;;;;5020044;28;20264;-53
2022/08/21 04:14:45;;;;;;;5.30;2.87;;;;;;;;;;5023140;28;20216;-53
2022/08/21 04:17:11;;;;;;;8.43;2.87;;;;;;;;;;5027916;28;20430;-53
2022/08/21 04:19:37;;;;;;;3.10;2.20;;;;;;;;;;4983163;28;20827;-53
2022/08/21 04:22:03;;;;;;;4.20;3.00;;;;;;;;;;5027713;28;20450;-53
2022/08/21 04:24:28;;;;;;;5.27;2.87;;;;;;;;;;5019083;28;20681;-53
2022/08/21 04:26:54;;;;;;;6.73;3.33;;;;;;;;;;5017243;28;20870;-53
2022/08/21 04:29:20;;;;;;;3.43;2.40;;;;;;;;;;5019243;28;20455;-53
2022/08/21 04:31:46;;;;;;;3.33;2.80;;;;;;;;;;5019429;28;20450;-53
2022/08/21 04:34:13;;;;;;;3.70;2.73;;;;;;;;;;5022624;28;20937;-52
2022/08/21 04:36:39;;;;;;;4.30;2.70;;;;;;;;;;5026195;28;20192;-53
2022/08/21 04:39:05;;;;;;;4.23;2.63;;;;;;;;;;5006183;28;20793;-54
2022/08/21 04:41:31;;;;;;;4.50;3.00;;;;;;;;;;5021764;28;20219;-54
2022/08/21 04:43:57;;;;;;;4.60;2.93;;;;;;;;;;5013169;28;20470;-54
2022/08/21 04:46:23;;;;;;;3.40;2.63;;;;;;;;;;5026427;28;20478;-53
2022/08/21 04:48:50;;;;;;;5.70;2.77;;;;;;;;;;5016550;28;20450;-54
2022/08/21 04:51:16;;;;;;;3.07;2.77;;;;;;;;;;5019678;28;20443;-54
2022/08/21 04:53:56;;;;;;;6.80;3.17;;;;;;;;;;5004286;28;22226;-54
2022/08/21 04:56:23;;;;;;;4.83;2.63;;;;;;;;;;5014806;28;20442;-53
2022/08/21 04:58:49;;;;;;;4.73;3.33;;;;;;;;;;5024935;28;20440;-53
2022/08/21 05:01:16;;;;;;;5.03;2.67;;;;;;;;;;5003619;28;20442;-54
2022/08/21 05:03:42;;;;;;;5.03;2.73;;;;;;;;;;5012362;28;20443;-54
2022/08/21 05:06:08;;;;;;;5.77;2.30;;;;;;;;;;5021836;28;20486;-53
2022/08/21 05:08:34;;;;;;;5.57;3.83;;;;;;;;;;5021151;28;20191;-53
2022/08/21 05:11:00;;;;;;;4.30;3.27;;;;;;;;;;5011293;28;20431;-53
2022/08/21 05:13:26;;;;;;;3.50;2.47;;;;;;;;;;5029357;28;20440;-53
2022/08/21 05:15:53;;;;;;;3.80;2.60;;;;;;;;;;4998809;28;20181;-53
2022/08/21 05:18:19;;;;;;;2.77;2.40;;;;;;;;;;5029477;28;20458;-54
2022/08/21 05:20:45;;;;;;;4.83;2.90;;;;;;;;;;5004511;28;20775;-53
2022/08/21 05:23:11;;;;;;;6.27;2.77;;;;;;;;;;5024713;28;20545;-53
2022/08/21 05:25:37;;;;;;;9.83;3.20;;;;;;;;;;5019309;28;20478;-54
2022/08/21 05:28:03;;;;;;;4.40;2.97;;;;;;;;;;5017848;28;20462;-54
2022/08/21 05:30:29;;;;;;;3.63;2.70;;;;;;;;;;4976812;28;21034;-52
2022/08/21 05:32:59;;;;;;;4.73;2.67;;;;;;;;;;5024796;28;20435;-52
2022/08/21 05:35:25;;;;;;;4.13;2.50;;;;;;;;;;5018517;28;20427;-53
2022/08/21 05:37:50;;;;;;;5.43;2.90;;;;;;;;;;5023437;28;20442;-52
2022/08/21 05:40:17;;;;;;;4.87;3.10;;;;;;;;;;5024873;28;20450;-53
2022/08/21 05:42:43;;;;;;;11.53;3.00;;;;;;;;;;5027902;28;20431;-53
2022/08/21 05:45:09;;;;;;;5.03;2.93;;;;;;;;;;5024937;28;20633;-52
2022/08/21 05:47:35;;;;;;;5.10;3.10;;;;;;;;;;5019315;28;20200;-53
2022/08/21 05:50:01;;;;;;;5.27;3.33;;;;;;;;;;5007191;28;20510;-53
2022/08/21 05:52:27;;;;;;;4.17;2.63;;;;;;;;;;5029355;28;20185;-53
2022/08/21 05:54:53;;;;;;;3.20;2.63;;;;;;;;;;5024436;28;20181;-53
2022/08/21 05:57:20;;;;;;;5.43;3.37;;;;;;;;;;5029686;28;20203;-53
2022/08/21 05:59:45;;;;;;;4.37;3.30;;;;;;;;;;5005072;28;20824;-54
2022/08/21 06:02:11;;;;;;;4.43;3.03;;;;;;;;;;4998479;28;20427;-54
2022/08/21 06:04:38;;;;;;;3.10;2.67;;;;;;;;;;4979133;28;20446;-54
2022/08/21 06:07:04;;;;;;;5.30;3.00;;;;;;;;;;5019567;28;20486;-55
2022/08/21 06:09:30;;;;;;;3.60;2.90;;;;;;;;;;5025227;28;20428;-54
2022/08/21 06:11:56;;;;;;;6.67;3.93;;;;;;;;;;5021121;28;20505;-53
2022/08/21 06:14:22;;;;;;;3.87;2.70;;;;;;;;;;5023287;28;20433;-53
2022/08/21 06:16:48;;;;;;;4.80;2.93;;;;;;;;;;5026743;28;20530;-54
2022/08/21 06:19:14;;;;;;;3.50;2.80;;;;;;;;;;5003672;28;20311;-54
2022/08/21 06:21:39;;;;;;;10.80;3.23;;;;;;;;;;5010816;28;20423;-53
2022/08/21 06:24:06;;;;;;;3.43;2.47;;;;;;;;;;5021513;28;20200;-54
2022/08/21 06:26:32;;;;;;;3.60;2.70;;;;;;;;;;5029275;28;20550;-54
2022/08/21 06:28:58;;;;;;;4.93;2.83;;;;;;;;;;5012663;28;20427;-55
2022/08/21 06:31:25;;;;;;;3.40;2.53;;;;;;;;;;5027892;28;20952;-54
2022/08/21 06:33:51;;;;;;;4.10;2.90;;;;;;;;;;4997463;28;20477;-54
2022/08/21 06:36:17;;;;;;;5.30;2.50;;;;;;;;;;5007552;28;21329;-54
2022/08/21 06:38:43;;;;;;;3.37;3.10;;;;;;;;;;5010552;28;20538;-54
2022/08/21 06:41:09;;;;;;;4.33;2.70;;;;;;;;;;5010726;28;21344;-53
2022/08/21 06:43:35;;;;;;;4.63;2.50;;;;;;;;;;5024918;28;20820;-54
2022/08/21 06:46:01;;;;;;;3.87;3.03;;;;;;;;;;5019826;28;20479;-54
2022/08/21 06:48:27;;;;;;;5.50;3.30;;;;;;;;;;5016609;28;21881;-54
2022/08/21 06:50:52;;;;;;;9.27;2.80;;;;;;;;;;5008616;28;20655;-54
2022/08/21 06:53:19;;;;;;;6.30;3.20;;;;;;;;;;5022697;28;20474;-55
2022/08/21 06:55:45;;;;;;;6.43;3.27;;;;;;;;;;5020986;28;20188;-54
2022/08/21 06:58:11;;;;;;;6.10;3.40;;;;;;;;;;5027248;28;20783;-54
2022/08/21 07:00:40;;;;;;;4.53;3.90;;;;;;;;;;5007119;28;20522;-54
2022/08/21 07:03:06;;;;;;;4.30;3.07;;;;;;;;;;5027399;28;20578;-54
2022/08/21 07:05:32;;;;;;;7.87;4.07;;;;;;;;;;5016202;28;20476;-54
2022/08/21 07:07:58;;;;;;;8.13;3.90;;;;;;;;;;5019310;28;20423;-54
2022/08/21 07:10:25;;;;;;;6.47;4.00;;;;;;;;;;4977775;28;20195;-55
2022/08/21 07:12:52;;;;;;;5.50;3.80;;;;;;;;;;5023445;28;20439;-55
2022/08/21 07:15:18;;;;;;;4.57;3.20;;;;;;;;;;5023908;28;20434;-54
2022/08/21 07:17:44;;;;;;;6.70;3.90;;;;;;;;;;5029217;28;20431;-54
2022/08/21 07:20:10;;;;;;;5.63;4.10;;;;;;;;;;5011558;28;20951;-54
2022/08/21 07:22:36;;;;;;;4.00;3.10;;;;;;;;;;5029291;28;20473;-54
2022/08/21 07:25:02;;;;;;;4.33;3.80;;;;;;;;;;5003578;28;20989;-55
2022/08/21 07:27:28;;;;;;;4.70;3.10;;;;;;;;;;5019939;28;20431;-55
2022/08/21 07:29:54;;;;;;;7.63;3.60;;;;;;;;;;5004506;28;21026;-54
2022/08/21 07:32:20;;;;;;;6.03;3.50;;;;;;;;;;5024465;28;20467;-53
2022/08/21 07:34:46;;;;;;;6.10;3.73;;;;;;;;;;5022761;28;20189;-54
2022/08/21 07:37:12;;;;;;;4.70;4.17;;;;;;;;;;5008247;28;20184;-54
2022/08/21 07:39:38;;;;;;;6.60;3.83;;;;;;;;;;4979918;28;20505;-54
2022/08/21 07:42:04;;;;;;;6.80;4.00;;;;;;;;;;5004849;28;20640;-55
2022/08/21 07:44:30;;;;;;;6.33;4.00;;;;;;;;;;5013161;28;20173;-55
2022/08/21 07:46:56;;;;;;;7.53;4.50;;;;;;;;;;5021515;28;20489;-53
2022/08/21 07:49:22;;;;;;;5.17;3.70;;;;;;;;;;5008988;28;20438;-52
2022/08/21 07:51:48;;;;;;;7.27;3.90;;;;;;;;;;5033898;28;20435;-53
2022/08/21 07:54:14;;;;;;;6.60;4.20;;;;;;;;;;5030162;28;20901;-53
2022/08/21 07:56:40;;;;;;;6.20;3.77;;;;;;;;;;5031997;28;20494;-53
2022/08/21 07:59:06;;;;;;;6.10;3.80;;;;;;;;;;5017291;28;20707;-54
2022/08/21 08:01:31;;;;;;;8.53;3.63;;;;;;;;;;5028456;28;20184;-53
2022/08/21 08:03:57;;;;;;;8.00;4.13;;;;;;;;;;5024036;28;20525;-53
2022/08/21 08:06:23;;;;;;;4.97;3.40;;;;;;;;;;5032219;28;20478;-54
2022/08/21 08:08:49;;;;;;;5.10;3.93;;;;;;;;;;5032774;28;20446;-53
2022/08/21 08:11:15;;;;;;;6.53;4.30;;;;;;;;;;5025777;28;20434;-53
2022/08/21 08:13:42;;;;;;;6.50;4.17;;;;;;;;;;5014404;28;21100;-54
2022/08/21 08:16:08;;;;;;;4.80;3.20;;;;;;;;;;5004501;28;20909;-53
2022/08/21 08:18:34;;;;;;;6.53;3.70;;;;;;;;;;5023312;28;20439;-53
2022/08/21 08:21:00;;;;;;;5.63;3.80;;;;;;;;;;5005890;28;20451;-53
2022/08/21 08:23:27;;;;;;;6.33;3.93;;;;;;;;;;5025337;28;20188;-53
2022/08/21 08:25:53;;;;;;;11.53;3.97;;;;;;;;;;5025562;28;20485;-55
2022/08/21 08:28:18;;;;;;;4.97;3.83;;;;;;;;;;5023420;28;20430;-53
2022/08/21 08:30:45;;;;;;;10.80;4.20;;;;;;;;;;5025916;28;20191;-53
2022/08/21 08:33:11;;;;;;;5.13;3.10;;;;;;;;;;5031033;28;20534;-53
2022/08/21 08:35:37;;;;;;;4.90;3.30;;;;;;;;;;5028675;28;20457;-54
2022/08/21 08:38:03;;;;;;;4.33;3.93;;;;;;;;;;5025211;28;20180;-54
2022/08/21 08:40:29;;;;;;;6.23;3.57;;;;;;;;;;5024309;28;20235;-53
2022/08/21 08:42:55;;;;;;;5.07;4.03;;;;;;;;;;5033885;28;20434;-55
2022/08/21 08:45:26;;;;;;;6.77;4.03;;;;;;;;;;5028574;28;20483;-52
2022/08/21 08:48:00;;;;;;;7.23;4.10;;;;;;;;;;5035204;28;20439;-52
2022/08/21 08:50:45;;;;;;;4.83;4.33;;;;;;;;;;4968580;28;20434;-54
2022/08/21 08:53:16;;;;;;;5.87;4.40;;;;;;;;;;5032756;28;20437;-53
2022/08/21 08:55:43;;;;;;;5.57;3.60;;;;;;;;;;5010726;28;20497;-54
2022/08/21 08:58:12;;;;;;;8.67;5.47;;;;;;;;;;5010804;28;20531;-54
2022/08/21 09:00:38;;;;;;;6.00;5.30;;;;;;;;;;5008178;28;20457;-55
2022/08/21 09:03:04;;;;;;;5.00;3.40;;;;;;;;;;5022010;28;20435;-54
2022/08/21 09:05:40;;;;;;;5.50;3.93;;;;;;;;;;5024932;28;20482;-54
2022/08/21 09:08:20;;;;;;;5.10;3.47;;;;;;;;;;4983498;28;20446;-54
2022/08/21 09:10:55;;;;;;;6.43;4.40;;;;;;;;;;4977840;28;20447;-54
2022/08/21 09:13:26;;;;;;;4.50;3.90;;;;;;;;;;5027657;28;20426;-53
2022/08/21 09:16:11;;;;;;;4.13;3.40;;;;;;;;;;5006018;28;20997;-54
2022/08/21 09:18:42;;;;;;;6.03;4.60;;;;;;;;;;5025680;28;20493;-54
2022/08/21 09:21:15;;;;;;;9.97;3.40;;;;;;;;;;4961946;28;20931;-53
2022/08/21 09:23:41;;;;;;;7.33;3.87;;;;;;;;;;5026109;28;20427;-53
2022/08/21 09:26:07;;;;;;;4.97;3.40;;;;;;;;;;5024702;28;20536;-53
2022/08/21 09:28:36;;;;;;;5.87;4.27;;;;;;;;;;5022765;28;20423;-52
2022/08/21 09:31:14;;;;;;;4.87;3.80;;;;;;;;;;5008239;28;20185;-52
2022/08/21 09:33:40;;;;;;;5.53;4.17;;;;;;;;;;5012423;28;20851;-53
2022/08/21 09:36:06;;;;;;;6.40;3.80;;;;;;;;;;5021767;28;21071;-53
2022/08/21 09:38:34;;;;;;;6.27;4.40;;;;;;;;;;5019562;28;20580;-53
2022/08/21 09:41:01;;;;;;;7.60;3.83;;;;;;;;;;5010566;28;20435;-53
2022/08/21 09:43:27;;;;;;;5.37;3.73;;;;;;;;;;5028625;28;20901;-53
2022/08/21 09:46:10;;;;;;;5.20;3.50;;;;;;;;;;5024318;28;20620;-54
2022/08/21 09:48:46;;;;;;;6.87;4.37;;;;;;;;;;5031013;28;20664;-53
2022/08/21 09:51:14;;;;;;;8.83;4.03;;;;;;;;;;5007575;28;20480;-54
2022/08/21 09:53:43;;;;;;;8.77;4.73;;;;;;;;;;5012577;28;20431;-53
2022/08/21 09:59:20;;;;;;;6.80;4.00;;;;;;;;;;5020021;28;20467;-54
2022/08/21 10:01:47;;;;;;;5.63;4.00;;;;;;;;;;5022437;28;20455;-53
2022/08/21 10:04:13;;;;;;;5.80;3.80;;;;;;;;;;5023018;28;20442;-54
2022/08/21 10:06:39;;;;;;;8.70;4.70;;;;;;;;;;5027105;28;20471;-54
2022/08/21 10:09:05;;;;;;;7.23;4.17;;;;;;;;;;5020764;28;20474;-53
2022/08/21 10:11:31;;;;;;;9.50;4.50;;;;;;;;;;5012919;28;20448;-53
2022/08/21 10:14:00;;;;;;;6.53;4.10;;;;;;;;;;5006479;28;21120;-53
2022/08/21 10:16:35;;;;;;;7.00;4.10;;;;;;;;;;5023842;28;20444;-54
2022/08/21 10:19:04;;;;;;;5.30;3.87;;;;;;;;;;5030002;28;20557;-56
2022/08/21 10:21:37;;;;;;;6.07;3.90;;;;;;;;;;5013690;28;20447;-55
2022/08/21 10:24:10;;;;;;;8.10;4.37;;;;;;;;;;5006911;28;20518;-55
2022/08/21 10:26:54;;;;;;;8.47;4.20;;;;;;;;;;5011371;28;20472;-54
2022/08/21 10:29:28;;;;;;;6.97;4.53;;;;;;;;;;5002471;28;20518;-55
2022/08/21 10:31:53;;;;;;;7.87;4.03;;;;;;;;;;4970718;28;20506;-54
2022/08/21 10:34:19;;;;;;;6.87;5.07;;;;;;;;;;5024554;28;20431;-54
2022/08/21 10:36:57;;;;;;;5.63;4.20;;;;;;;;;;5020355;28;20177;-53
2022/08/21 10:39:28;;;;;;;9.63;4.60;;;;;;;;;;5010375;28;20164;-55
2022/08/21 10:42:03;;;;;;;5.37;4.13;;;;;;;;;;5003939;28;20538;-54
2022/08/21 10:44:29;;;;;;;8.10;4.50;;;;;;;;;;5018721;28;20492;-54
2022/08/21 10:46:56;;;;;;;4.73;3.77;;;;;;;;;;5020661;28;20478;-53
2022/08/21 10:49:39;;;;;;;6.50;3.63;;;;;;;;;;5022549;28;20187;-54
2022/08/21 10:52:35;;;;;;;7.87;4.07;;;;;;;;;;5003631;28;20465;-54
2022/08/21 10:55:01;;;;;;;4.83;3.70;;;;;;;;;;5011801;28;20431;-54
2022/08/21 10:57:41;;;;;;;6.63;4.23;;;;;;;;;;5026035;28;20431;-53
2022/08/21 11:00:10;;;;;;;4.70;3.80;;;;;;;;;;5001927;28;20436;-54
2022/08/21 11:02:41;;;;;;;5.03;4.00;;;;;;;;;;5029681;28;20430;-55
2022/08/21 11:05:12;;;;;;;4.23;3.70;;;;;;;;;;4979930;28;21659;-55
2022/08/21 11:07:40;;;;;;;5.00;4.50;;;;;;;;;;5020721;28;20446;-55
2022/08/21 11:10:17;;;;;;;6.33;4.23;;;;;;;;;;5016087;28;20547;-55
2022/08/21 11:12:44;;;;;;;8.10;4.67;;;;;;;;;;4996541;28;20969;-54
2022/08/21 11:15:29;;;;;;;5.83;4.10;;;;;;;;;;5005238;28;20437;-55
2022/08/21 11:18:11;;;;;;;6.70;3.93;;;;;;;;;;5016030;28;20428;-55
2022/08/21 11:20:39;;;;;;;6.23;3.60;;;;;;;;;;5003129;28;20526;-54
2022/08/21 11:23:07;;;;;;;8.23;4.10;;;;;;;;;;4998000;28;20432;-54
2022/08/21 11:25:41;;;;;;;5.30;3.80;;;;;;;;;;5007678;28;20494;-55
2022/08/21 11:28:10;;;;;;;6.37;4.47;;;;;;;;;;5024983;28;20439;-55
2022/08/21 11:30:48;;;;;;;5.90;4.23;;;;;;;;;;5012175;28;20442;-54
2022/08/21 11:33:29;;;;;;;5.33;3.40;;;;;;;;;;5027548;28;20506;-54
2022/08/21 11:36:03;;;;;;;7.47;4.27;;;;;;;;;;4974924;28;20464;-53
2022/08/21 11:38:38;;;;;;;6.10;4.40;;;;;;;;;;5006704;28;20435;-53
2022/08/21 11:41:13;;;;;;;6.63;4.20;;;;;;;;;;4987291;28;20454;-54
2022/08/21 11:43:42;;;;;;;7.80;4.00;;;;;;;;;;5022967;28;20436;-53
2022/08/21 11:46:14;;;;;;;5.30;4.07;;;;;;;;;;5001849;28;20495;-54
2022/08/21 11:48:46;;;;;;;3.50;3.20;;;;;;;;;;5019824;28;20441;-53
2022/08/21 11:51:13;;;;;;;7.37;4.03;;;;;;;;;;5008002;28;21415;-58
2022/08/21 11:53:41;;;;;;;5.07;4.20;;;;;;;;;;5005873;28;20431;-54
2022/08/21 11:56:10;;;;;;;5.60;3.90;;;;;;;;;;5015926;28;20610;-54
2022/08/21 11:58:37;;;;;;;5.90;3.50;;;;;;;;;;5005413;28;20446;-55
2022/08/21 12:01:11;;;;;;;6.37;4.10;;;;;;;;;;5004288;28;20522;-54
2022/08/21 12:03:38;;;;;;;6.27;4.10;;;;;;;;;;5004397;28;20431;-54
2022/08/21 12:06:11;;;;;;;5.40;4.00;;;;;;;;;;5009773;28;20562;-55
2022/08/21 12:08:38;;;;;;;7.67;4.37;;;;;;;;;;5020225;28;20443;-54
2022/08/21 12:11:07;;;;;;;4.73;3.50;;;;;;;;;;4980782;28;20448;-54
2022/08/21 12:13:41;;;;;;;7.47;4.37;;;;;;;;;;5022434;28;20427;-54
2022/08/21 12:16:14;;;;;;;4.80;3.63;;;;;;;;;;4998299;28;20440;-54
2022/08/21 12:18:40;;;;;;;5.80;4.00;;;;;;;;;;5017552;28;20969;-54
2022/08/21 12:21:22;;;;;;;6.03;3.73;;;;;;;;;;4999474;28;20439;-55
2022/08/21 12:23:49;;;;;;;5.40;4.37;;;;;;;;;;5022015;28;21281;-54
2022/08/21 12:26:21;;;;;;;8.70;3.97;;;;;;;;;;5020937;28;21169;-53
2022/08/21 12:28:47;;;;;;;5.50;4.30;;;;;;;;;;5020488;28;20525;-54
2022/08/21 12:31:22;;;;;;;5.37;4.33;;;;;;;;;;5005413;28;21210;-53
2022/08/21 12:33:52;;;;;;;6.20;4.80;;;;;;;;;;5024184;28;20438;-54
2022/08/21 12:36:21;;;;;;;5.00;3.40;;;;;;;;;;5014966;28;20462;-55
2022/08/21 12:38:50;;;;;;;5.23;3.80;;;;;;;;;;5014899;28;20451;-55
2022/08/21 12:41:17;;;;;;;5.63;4.03;;;;;;;;;;5014674;28;20674;-54
2022/08/21 12:43:44;;;;;;;4.30;3.90;;;;;;;;;;5018907;28;20424;-54
2022/08/21 12:46:25;;;;;;;4.90;3.90;;;;;;;;;;4967101;28;20573;-54
2022/08/21 12:49:01;;;;;;;6.83;4.10;;;;;;;;;;4988940;28;20435;-57
2022/08/21 12:51:37;;;;;;;5.70;3.50;;;;;;;;;;4998738;28;20541;-54
2022/08/21 12:54:03;;;;;;;6.60;4.10;;;;;;;;;;5008213;28;20446;-54
2022/08/21 12:56:31;;;;;;;5.40;4.07;;;;;;;;;;5025958;28;20515;-54
2022/08/21 12:58:59;;;;;;;6.03;3.93;;;;;;;;;;5025528;28;21003;-54
2022/08/21 13:01:29;;;;;;;7.00;4.20;;;;;;;;;;5006625;28;21277;-54
2022/08/21 13:03:55;;;;;;;5.20;3.40;;;;;;;;;;5014192;28;20584;-53
2022/08/21 13:06:21;;;;;;;5.10;3.37;;;;;;;;;;5018817;28;20478;-53
2022/08/21 13:08:48;;;;;;;4.97;3.27;;;;;;;;;;5022771;28;20427;-54
2022/08/21 13:11:15;;;;;;;10.57;3.20;;;;;;;;;;5009324;28;21034;-53
2022/08/21 13:13:41;;;;;;;4.93;3.13;;;;;;;;;;5015884;28;20435;-53
2022/08/21 13:16:07;;;;;;;4.57;3.67;;;;;;;;;;4970978;28;20450;-54
2022/08/21 13:18:34;;;;;;;4.37;3.60;;;;;;;;;;5031624;28;20185;-54
2022/08/21 13:21:10;;;;;;;6.47;4.00;;;;;;;;;;5006036;28;20423;-54
2022/08/21 13:23:36;;;;;;;4.77;3.73;;;;;;;;;;5009988;28;20497;-54
2022/08/21 13:26:03;;;;;;;4.70;3.20;;;;;;;;;;5025626;28;21223;-55
2022/08/21 13:28:33;;;;;;;4.03;3.10;;;;;;;;;;5020298;28;20184;-54
2022/08/21 13:31:01;;;;;;;5.93;3.70;;;;;;;;;;5021238;28;20440;-53
2022/08/21 13:33:27;;;;;;;4.93;3.77;;;;;;;;;;5006192;28;20451;-54
2022/08/21 13:35:56;;;;;;;5.73;3.30;;;;;;;;;;5026303;28;20489;-54
2022/08/21 13:38:24;;;;;;;7.80;3.40;;;;;;;;;;5019992;28;20426;-54
2022/08/21 13:40:50;;;;;;;5.60;5.10;;;;;;;;;;5012007;28;20453;-54
2022/08/21 13:43:19;;;;;;;5.73;3.43;;;;;;;;;;5023927;28;20477;-54
2022/08/21 13:45:49;;;;;;;4.90;3.70;;;;;;;;;;5010396;28;20534;-53
2022/08/21 13:48:15;;;;;;;3.90;3.50;;;;;;;;;;4980117;28;20455;-54
2022/08/21 13:50:41;;;;;;;6.70;3.30;;;;;;;;;;5021779;28;20424;-53
2022/08/21 13:53:07;;;;;;;6.70;4.10;;;;;;;;;;5025057;28;20252;-55
2022/08/21 13:55:41;;;;;;;5.33;3.47;;;;;;;;;;4991560;28;20459;-54
2022/08/21 13:58:08;;;;;;;4.77;3.13;;;;;;;;;;5025552;28;21029;-53
2022/08/21 14:00:35;;;;;;;5.57;3.63;;;;;;;;;;5011852;28;20443;-55
2022/08/21 14:03:03;;;;;;;7.80;4.00;;;;;;;;;;5009915;28;20438;-54
2022/08/21 14:05:29;;;;;;;5.10;3.70;;;;;;;;;;5027858;28;20475;-53
2022/08/21 14:08:06;;;;;;;6.30;4.07;;;;;;;;;;5022841;28;20936;-54
2022/08/21 14:10:32;;;;;;;6.73;3.87;;;;;;;;;;5027642;28;20463;-53
2022/08/21 14:12:59;;;;;;;4.77;4.27;;;;;;;;;;5025499;28;20419;-53
2022/08/21 14:15:30;;;;;;;5.00;3.77;;;;;;;;;;5027063;28;20505;-54
2022/08/21 14:18:28;;;;;;;4.43;3.30;;;;;;;;;;5026708;28;20466;-53
2022/08/21 14:21:04;;;;;;;7.20;3.50;;;;;;;;;;4975832;28;20439;-53
2022/08/21 14:23:30;;;;;;;6.20;4.03;;;;;;;;;;4988095;28;20441;-54
2022/08/21 14:25:59;;;;;;;4.80;4.00;;;;;;;;;;5026823;28;20471;-54
2022/08/21 14:28:26;;;;;;;5.17;3.57;;;;;;;;;;5007629;28;20485;-54
2022/08/21 14:30:52;;;;;;;4.37;3.70;;;;;;;;;;5028361;28;20438;-54
2022/08/21 14:33:36;;;;;;;8.17;3.43;;;;;;;;;;4996910;28;20455;-54
2022/08/21 14:36:03;;;;;;;5.03;4.07;;;;;;;;;;5007791;28;21036;-54
2022/08/21 14:38:28;;;;;;;5.90;3.40;;;;;;;;;;5023180;28;20921;-54
2022/08/21 14:40:56;;;;;;;4.60;3.17;;;;;;;;;;5020366;28;20420;-54
2022/08/21 14:43:22;;;;;;;4.67;3.13;;;;;;;;;;5004973;28;20455;-54
2022/08/21 14:45:48;;;;;;;6.73;3.40;;;;;;;;;;5024745;28;20521;-54
2022/08/21 14:48:14;;;;;;;6.30;3.40;;;;;;;;;;5000719;28;20431;-54
2022/08/21 14:50:40;;;;;;;6.60;3.47;;;;;;;;;;5018247;28;20518;-53